KMWO/MWO METAR and TAF weather

Enter ICAO airport designator
Station Type Date Time Source
KMWO METAR 2019/04/19 10:55 UTC NOAA

KMWO 191055Z AUTO 02006KT 10SM BKN011 BKN045 OVC070 07/06 A2958 RMK AO2 T00680056


Station Type Date Time Source
KMWO Decoded METAR 2019/04/19 10:55 UTC NOAA

Station name not available
Apr 19, 2019 - 06:55 AM EDT / 2019.04.19 1055 UTC
Wind: from the NNE (020 degrees) at 7 MPH (6 KT):0
Visibility: 10 mile(s):0
Sky conditions: overcast
Temperature: 44.2 F (6.8 C)
Dew Point: 42.1 F (5.6 C)
Relative Humidity: 92%
Pressure (altimeter): 29.58 in. Hg (1001 hPa)
ob: KMWO 191055Z AUTO 02006KT 10SM BKN011 BKN045 OVC070 07/06 A2958 RMK AO2 T00680056
cycle: 11

Station Type Date Time Source
KMWO TAF UTC NOAA

Error!

Example: see airport list